Time;durP1;ratioP1;P1;durP2;ratioP2;P2;SDS_P1;SDS_P2;PMS_P1;PMS_P2;Temp;Humidity;BMP_temperature;BMP_pressure;BME280_temperature;BME280_humidity;BME280_pressure;Samples;Min_cycle;Max_cycle;Signal;HPM_P1;HPM_P2
2020/12/10 00:01:20;;;;;;;86.25;41.70;;;2.60;97.20;;;;;;5063647;28;20471;-68
2020/12/10 00:03:47;;;;;;;146.45;71.10;;;2.60;97.20;;;;;;5064761;28;20397;-70
2020/12/10 00:06:12;;;;;;;132.48;65.03;;;2.60;97.30;;;;;;5061881;28;20051;-70
2020/12/10 00:08:38;;;;;;;149.45;76.82;;;2.60;97.10;;;;;;5063648;28;20045;-69
2020/12/10 00:11:04;;;;;;;143.00;69.13;;;2.60;97.20;;;;;;5063389;28;20046;-70
2020/12/10 00:13:50;;;;;;;161.30;72.97;;;2.60;97.40;;;;;;5063769;28;20076;-70
2020/12/10 00:16:15;;;;;;;116.18;54.15;;;2.50;97.40;;;;;;5062826;28;20087;-69
2020/12/10 00:18:41;;;;;;;154.65;70.85;;;2.60;97.30;;;;;;5064317;28;20040;-69
2020/12/10 00:21:27;;;;;;;101.03;48.60;;;2.60;97.30;;;;;;5060632;28;20404;-70
2020/12/10 00:23:52;;;;;;;127.22;60.55;;;2.60;97.30;;;;;;5052674;28;20041;-69
2020/12/10 00:26:38;;;;;;;96.00;48.25;;;2.60;97.40;;;;;;5042530;28;20056;-70
2020/12/10 00:29:05;;;;;;;150.18;73.03;;;2.60;97.30;;;;;;5049719;28;20222;-68
2020/12/10 00:31:31;;;;;;;144.18;71.90;;;2.50;97.40;;;;;;5063515;28;20484;-70
2020/12/10 00:34:17;;;;;;;108.88;51.28;;;2.50;97.40;;;;;;5062195;28;20124;-69
2020/12/10 00:36:42;;;;;;;119.72;57.63;;;2.60;97.30;;;;;;5062966;28;20119;-70
2020/12/10 00:39:08;;;;;;;123.43;62.35;;;2.60;97.40;;;;;;5063098;28;20036;-70
2020/12/10 00:41:54;;;;;;;129.05;60.35;;;2.60;97.30;;;;;;5043035;28;20045;-69
2020/12/10 00:44:20;;;;;;;119.57;57.92;;;2.70;97.30;;;;;;5050143;28;20603;-69
2020/12/10 00:46:45;;;;;;;132.13;62.05;;;2.60;97.40;;;;;;5063184;28;20129;-69
2020/12/10 00:49:11;;;;;;;163.82;70.20;;;2.60;97.50;;;;;;5062869;28;20032;-70
2020/12/10 00:51:37;;;;;;;140.43;61.38;;;2.50;97.50;;;;;;5061398;28;20048;-69
2020/12/10 00:54:03;;;;;;;159.88;74.55;;;2.60;97.60;;;;;;5063958;28;20560;-70
2020/12/10 00:56:35;;;;;;;132.63;62.75;;;2.50;97.60;;;;;;5061955;28;20132;-69
2020/12/10 00:59:20;;;;;;;139.02;65.78;;;2.60;97.60;;;;;;5063476;28;20041;-69
2020/12/10 01:01:46;;;;;;;154.63;68.72;;;2.60;97.60;;;;;;5062232;28;20036;-70
2020/12/10 01:04:13;;;;;;;119.88;56.67;;;2.50;97.60;;;;;;5064083;28;20063;-69
2020/12/10 01:06:40;;;;;;;129.35;58.85;;;2.50;97.50;;;;;;5061303;28;20370;-70
2020/12/10 01:09:07;;;;;;;145.77;70.05;;;2.60;97.40;;;;;;5063308;28;20036;-70
2020/12/10 01:11:34;;;;;;;134.60;62.08;;;2.50;97.80;;;;;;5062750;28;20348;-71
2020/12/10 01:13:59;;;;;;;115.15;57.45;;;2.60;97.50;;;;;;5063167;28;20094;-70
2020/12/10 01:16:25;;;;;;;135.13;58.90;;;2.60;97.60;;;;;;5062706;28;20261;-69
2020/12/10 01:19:11;;;;;;;145.50;67.32;;;2.60;97.60;;;;;;5061969;28;20163;-69
2020/12/10 01:21:57;;;;;;;144.85;64.43;;;2.60;97.60;;;;;;5058371;28;20048;-70
2020/12/10 01:24:22;;;;;;;133.57;64.72;;;2.60;97.60;;;;;;5063840;28;20416;-68
2020/12/10 01:27:08;;;;;;;147.65;66.05;;;2.60;97.50;;;;;;5060104;28;20439;-69
2020/12/10 01:29:34;;;;;;;97.45;42.15;;;2.50;97.80;;;;;;5063694;28;20051;-69
2020/12/10 01:31:59;;;;;;;154.05;71.50;;;2.60;97.60;;;;;;5061382;28;20049;-70
2020/12/10 01:34:25;;;;;;;166.95;72.55;;;2.50;97.80;;;;;;5062917;28;20461;-70
2020/12/10 01:37:10;;;;;;;139.02;63.53;;;2.50;97.90;;;;;;5062660;28;20106;-70
2020/12/10 01:39:38;;;;;;;159.13;71.05;;;2.50;97.90;;;;;;5067062;28;20073;-69
2020/12/10 01:42:04;;;;;;;134.75;61.03;;;2.50;97.90;;;;;;5065665;28;20158;-69
2020/12/10 01:44:29;;;;;;;138.25;57.63;;;2.60;97.70;;;;;;5067113;28;20067;-69
2020/12/10 01:46:55;;;;;;;142.40;64.55;;;2.50;97.70;;;;;;5061977;28;20134;-69
2020/12/10 01:49:41;;;;;;;164.60;71.25;;;2.50;97.80;;;;;;5065079;28;20044;-69
2020/12/10 01:52:07;;;;;;;129.52;61.35;;;2.40;98.00;;;;;;5062396;28;20048;-69
2020/12/10 01:54:33;;;;;;;153.73;65.43;;;2.40;97.90;;;;;;5066327;28;20089;-69
2020/12/10 01:56:59;;;;;;;152.75;68.50;;;2.40;97.80;;;;;;5066101;28;20053;-70
2020/12/10 01:59:25;;;;;;;159.48;65.47;;;2.40;97.90;;;;;;5066412;28;20139;-67
2020/12/10 02:02:10;;;;;;;123.03;54.20;;;2.50;97.90;;;;;;5064351;28;20388;-69
2020/12/10 02:04:37;;;;;;;128.32;57.08;;;2.50;97.80;;;;;;5066789;28;20135;-70
2020/12/10 02:07:22;;;;;;;119.88;52.08;;;2.50;97.90;;;;;;5063600;28;20287;-69
2020/12/10 02:10:08;;;;;;;122.00;58.42;;;2.50;97.80;;;;;;5064981;28;20079;-69
2020/12/10 02:12:33;;;;;;;132.48;57.63;;;2.50;97.80;;;;;;5066479;28;20100;-70
2020/12/10 02:15:19;;;;;;;143.30;58.88;;;2.50;97.60;;;;;;5078563;28;20060;-69
2020/12/10 02:18:06;;;;;;;124.88;57.72;;;2.40;97.80;;;;;;5044994;28;20059;-70
2020/12/10 02:20:33;;;;;;;144.23;61.70;;;2.40;97.90;;;;;;5054343;28;20037;-70
2020/12/10 02:23:19;;;;;;;132.27;62.92;;;2.40;97.90;;;;;;5045859;28;20448;-68
2020/12/10 02:25:44;;;;;;;113.22;53.20;;;2.50;97.80;;;;;;5062305;28;20049;-68
2020/12/10 02:28:30;;;;;;;128.23;56.78;;;2.40;97.80;;;;;;5093654;28;20443;-70
2020/12/10 02:30:56;;;;;;;95.20;44.40;;;2.40;97.80;;;;;;5064726;28;20118;-70
2020/12/10 02:33:21;;;;;;;138.82;69.90;;;2.50;97.70;;;;;;5067221;28;20123;-68
2020/12/10 02:35:47;;;;;;;130.82;58.08;;;2.50;97.70;;;;;;5063734;28;20164;-69
2020/12/10 02:38:33;;;;;;;102.38;45.15;;;2.50;97.70;;;;;;5064645;28;20481;-69
2020/12/10 02:40:58;;;;;;;135.85;61.78;;;2.40;97.70;;;;;;5065040;28;20139;-70
2020/12/10 02:43:24;;;;;;;120.07;56.33;;;2.40;97.80;;;;;;5065334;28;20098;-69
2020/12/10 02:46:09;;;;;;;142.73;62.83;;;2.30;97.80;;;;;;5065097;28;20080;-69
2020/12/10 02:48:35;;;;;;;141.82;60.17;;;2.40;98.20;;;;;;5064457;28;20077;-69
2020/12/10 02:51:01;;;;;;;135.48;60.22;;;2.40;97.90;;;;;;5064202;28;20489;-68
2020/12/10 02:53:28;;;;;;;102.07;44.53;;;2.40;98.00;;;;;;5065586;28;20131;-70
2020/12/10 02:55:54;;;;;;;120.97;55.28;;;2.40;97.90;;;;;;5064920;28;20132;-69
2020/12/10 02:58:22;;;;;;;138.35;55.33;;;2.30;97.80;;;;;;5065486;28;20246;-70
2020/12/10 03:00:47;;;;;;;143.98;58.05;;;2.30;97.90;;;;;;5064692;28;20064;-69
2020/12/10 03:03:13;;;;;;;115.25;49.33;;;2.30;98.00;;;;;;5065122;28;20068;-67
2020/12/10 03:05:59;;;;;;;145.20;62.47;;;2.30;98.00;;;;;;5062322;28;20048;-68
2020/12/10 03:08:25;;;;;;;111.85;45.17;;;2.30;98.00;;;;;;5064870;28;20481;-68
2020/12/10 03:11:10;;;;;;;88.07;40.40;;;2.40;97.80;;;;;;5063910;28;20048;-69
2020/12/10 03:13:36;;;;;;;112.28;47.22;;;2.40;98.00;;;;;;5064862;28;20102;-69
2020/12/10 03:16:02;;;;;;;110.40;50.20;;;2.40;97.90;;;;;;5065428;28;20047;-69
2020/12/10 03:18:28;;;;;;;119.90;49.35;;;2.40;97.90;;;;;;5063706;28;20044;-69
2020/12/10 03:20:54;;;;;;;126.95;53.42;;;2.40;97.90;;;;;;5063576;28;20048;-68
2020/12/10 03:23:20;;;;;;;123.78;58.67;;;2.30;97.90;;;;;;5060649;28;20155;-71
2020/12/10 03:26:05;;;;;;;92.75;40.05;;;2.40;97.90;;;;;;5063577;28;20505;-68
2020/12/10 03:28:31;;;;;;;136.57;64.93;;;2.40;97.90;;;;;;5063392;28;20075;-69
2020/12/10 03:30:57;;;;;;;122.20;51.45;;;2.30;98.00;;;;;;5064233;28;20040;-69
2020/12/10 03:33:42;;;;;;;114.57;46.20;;;2.30;98.00;;;;;;5077483;28;20048;-69
2020/12/10 03:36:08;;;;;;;130.93;61.45;;;2.30;98.00;;;;;;5064168;28;20132;-69
2020/12/10 03:38:53;;;;;;;125.22;55.00;;;2.40;98.00;;;;;;5044747;28;20044;-69
2020/12/10 03:41:19;;;;;;;81.72;36.30;;;2.30;97.90;;;;;;5064913;28;20058;-69
2020/12/10 03:43:45;;;;;;;101.97;45.63;;;2.30;97.90;;;;;;5062496;28;20048;-69
2020/12/10 03:46:10;;;;;;;124.10;57.17;;;2.30;98.10;;;;;;5063896;28;20048;-68
2020/12/10 03:48:36;;;;;;;105.28;45.35;;;2.40;98.00;;;;;;5063164;28;20049;-69
2020/12/10 03:51:01;;;;;;;105.85;41.67;;;2.30;97.90;;;;;;5063676;28;20052;-69
2020/12/10 03:53:27;;;;;;;125.53;52.03;;;2.40;97.90;;;;;;5063522;28;20086;-69
2020/12/10 03:55:53;;;;;;;108.88;46.78;;;2.40;97.90;;;;;;5064724;28;20102;-67
2020/12/10 03:58:19;;;;;;;114.55;47.67;;;2.30;97.80;;;;;;5063960;28;20098;-68
2020/12/10 04:00:44;;;;;;;111.43;45.97;;;2.30;97.90;;;;;;5064002;28;20040;-69
2020/12/10 04:03:11;;;;;;;115.00;47.95;;;2.30;98.00;;;;;;5061625;28;20419;-68
2020/12/10 04:05:36;;;;;;;98.15;45.05;;;2.30;98.00;;;;;;5063078;28;20053;-68
2020/12/10 04:08:02;;;;;;;122.78;58.72;;;2.30;97.80;;;;;;5062824;28;20494;-69
2020/12/10 04:10:28;;;;;;;97.78;41.00;;;2.30;98.00;;;;;;5063843;28;20374;-69
2020/12/10 04:12:53;;;;;;;102.78;44.10;;;2.30;97.90;;;;;;5063429;28;20079;-70
2020/12/10 04:15:19;;;;;;;111.05;45.45;;;2.30;97.90;;;;;;5064611;28;20098;-68
2020/12/10 04:17:44;;;;;;;101.63;43.00;;;2.30;98.00;;;;;;5063659;28;20568;-69
2020/12/10 04:20:10;;;;;;;100.38;43.63;;;2.30;97.90;;;;;;5062656;28;20045;-69
2020/12/10 04:22:35;;;;;;;108.88;46.40;;;2.30;98.00;;;;;;5061988;28;20267;-69
2020/12/10 04:25:01;;;;;;;105.95;44.50;;;2.20;98.00;;;;;;5063581;28;20056;-67
2020/12/10 04:27:27;;;;;;;109.05;47.53;;;2.20;98.00;;;;;;5062848;28;20045;-69
2020/12/10 04:29:52;;;;;;;85.90;37.95;;;2.20;97.90;;;;;;5063601;28;20123;-71
2020/12/10 04:32:18;;;;;;;86.90;40.28;;;2.20;97.90;;;;;;5059257;28;20232;-68
2020/12/10 04:35:03;;;;;;;101.75;44.65;;;2.20;98.10;;;;;;5061293;28;20044;-69
2020/12/10 04:37:29;;;;;;;104.13;46.30;;;2.20;98.00;;;;;;5061835;28;20511;-68
2020/12/10 04:40:15;;;;;;;106.45;43.40;;;2.10;98.00;;;;;;5060699;28;20131;-68
2020/12/10 04:43:02;;;;;;;138.48;46.58;;;2.10;98.20;;;;;;5062902;28;20479;-69
2020/12/10 04:45:28;;;;;;;139.68;50.17;;;2.10;98.40;;;;;;5062759;28;20045;-69
2020/12/10 04:48:13;;;;;;;188.50;55.90;;;2.10;98.50;;;;;;5048701;28;20075;-68
2020/12/10 04:50:39;;;;;;;202.55;58.25;;;2.00;98.50;;;;;;5061379;28;20079;-69
2020/12/10 04:53:05;;;;;;;175.30;46.83;;;2.00;98.60;;;;;;5063255;28;20094;-68
2020/12/10 04:55:31;;;;;;;185.85;38.45;;;1.90;98.60;;;;;;5062647;28;20504;-68
2020/12/10 04:57:59;;;;;;;258.85;40.75;;;1.90;98.80;;;;;;5063594;28;20143;-70
2020/12/10 05:00:26;;;;;;;246.50;48.53;;;1.80;98.90;;;;;;5062107;28;20048;-69
2020/12/10 05:02:52;;;;;;;217.52;44.10;;;1.80;99.30;;;;;;5064131;28;20106;-69
2020/12/10 05:05:32;;;;;;;275.95;53.78;;;1.70;99.20;;;;;;5061947;28;20037;-69
2020/12/10 05:07:59;;;;;;;234.18;50.17;;;1.70;99.20;;;;;;5062894;28;20108;-69
2020/12/10 05:10:25;;;;;;;411.08;43.88;;;1.70;99.30;;;;;;5060452;28;20485;-69
2020/12/10 05:13:12;;;;;;;430.40;50.60;;;1.60;99.90;;;;;;5052632;28;20041;-69
2020/12/10 05:15:58;;;;;;;390.45;43.28;;;1.60;99.90;;;;;;5054191;28;20037;-69
2020/12/10 05:18:23;;;;;;;296.65;37.55;;;1.50;99.90;;;;;;5054442;28;20654;-68
2020/12/10 05:21:14;;;;;;;268.33;35.40;;;1.50;99.90;;;;;;5060297;28;20659;-69
2020/12/10 05:24:19;;;;;;;167.25;24.27;;;1.40;99.90;;;;;;5061657;28;20044;-68
2020/12/10 05:27:22;;;;;;;361.13;53.40;;;1.40;99.90;;;;;;5041599;28;20272;-70
2020/12/10 05:30:13;;;;;;;289.25;34.10;;;1.40;99.90;;;;;;5048988;28;20060;-69
2020/12/10 05:33:09;;;;;;;574.10;49.45;;;1.30;99.90;;;;;;5062309;28;20041;-69
2020/12/10 05:35:34;;;;;;;651.42;60.50;;;1.30;99.90;;;;;;5058997;28;20047;-69
2020/12/10 05:38:07;;;;;;;370.92;47.95;;;1.30;99.90;;;;;;5062945;28;20053;-69
2020/12/10 05:40:33;;;;;;;299.48;38.78;;;1.40;99.90;;;;;;5060947;28;20041;-70
2020/12/10 05:43:22;;;;;;;486.80;48.40;;;1.40;99.90;;;;;;5062129;28;20059;-69
2020/12/10 05:45:51;;;;;;;658.90;54.70;;;1.40;99.90;;;;;;5060781;28;20086;-69
2020/12/10 05:48:19;;;;;;;618.00;67.03;;;1.40;99.90;;;;;;5062262;28;20044;-69
2020/12/10 05:50:46;;;;;;;512.47;57.45;;;1.30;99.90;;;;;;5062102;28;20078;-69
2020/12/10 05:53:13;;;;;;;500.48;59.58;;;1.40;99.90;;;;;;5062834;28;20278;-69
2020/12/10 05:55:41;;;;;;;644.50;64.45;;;1.30;99.90;;;;;;5060613;28;20451;-69
2020/12/10 05:58:08;;;;;;;336.95;38.63;;;1.30;99.90;;;;;;5062893;28;20547;-68
2020/12/10 06:00:35;;;;;;;889.15;67.43;;;1.30;99.90;;;;;;5057225;28;20391;-70
2020/12/10 06:03:21;;;;;;;339.45;34.92;;;1.20;99.90;;;;;;5048225;28;20131;-70
2020/12/10 06:05:50;;;;;;;772.70;56.50;;;1.30;99.90;;;;;;5061310;28;20135;-70
2020/12/10 06:08:16;;;;;;;528.30;51.85;;;1.30;99.90;;;;;;5062738;28;20453;-68
2020/12/10 06:10:42;;;;;;;540.30;45.92;;;1.20;99.90;;;;;;5061390;28;20056;-69
2020/12/10 06:13:10;;;;;;;287.92;53.72;;;1.20;99.90;;;;;;5062457;28;20040;-69
2020/12/10 06:15:37;;;;;;;365.60;52.38;;;1.30;99.90;;;;;;5061867;28;20060;-68
2020/12/10 06:18:11;;;;;;;410.02;45.47;;;1.20;99.90;;;;;;5061391;28;20044;-68
2020/12/10 06:20:40;;;;;;;402.30;42.08;;;1.20;99.90;;;;;;5059075;28;20064;-69
2020/12/10 06:23:31;;;;;;;919.17;69.72;;;1.20;99.90;;;;;;5057151;28;20275;-70
2020/12/10 06:25:59;;;;;;;323.38;32.33;;;1.20;99.90;;;;;;5048009;28;20072;-69
2020/12/10 06:28:25;;;;;;;575.55;51.25;;;1.30;99.90;;;;;;5066111;28;20041;-70
2020/12/10 06:31:12;;;;;;;607.10;61.03;;;1.20;99.90;;;;;;5065064;28;20127;-70
2020/12/10 06:33:58;;;;;;;1374.45;79.60;;;1.30;99.90;;;;;;5065058;28;20052;-69
2020/12/10 06:36:43;;;;;;;908.88;69.80;;;1.30;99.90;;;;;;5063759;28;20121;-69
2020/12/10 06:39:09;;;;;;;1376.05;98.35;;;1.30;99.90;;;;;;5066568;28;20388;-69
2020/12/10 06:41:58;;;;;;;535.33;52.53;;;1.30;99.90;;;;;;5064102;28;20044;-69
2020/12/10 06:44:34;;;;;;;517.90;48.28;;;1.40;99.90;;;;;;5064960;28;20688;-69
2020/12/10 06:47:01;;;;;;;523.42;52.53;;;1.50;99.90;;;;;;5064182;28;20032;-69
2020/12/10 06:49:31;;;;;;;411.55;62.45;;;1.40;99.90;;;;;;5064828;28;20101;-69
2020/12/10 06:52:26;;;;;;;539.60;64.93;;;1.40;99.90;;;;;;5063291;28;20103;-69
2020/12/10 06:55:11;;;;;;;528.97;57.75;;;1.40;99.90;;;;;;5059763;28;20057;-69
2020/12/10 06:58:00;;;;;;;637.88;60.83;;;1.40;99.90;;;;;;5065550;28;20044;-69
2020/12/10 07:00:43;;;;;;;577.33;49.65;;;1.30;99.90;;;;;;5079456;28;20040;-69
2020/12/10 07:03:18;;;;;;;332.13;36.60;;;1.40;99.90;;;;;;5065508;28;20098;-69
2020/12/10 07:05:44;;;;;;;439.65;38.35;;;1.30;99.90;;;;;;5063825;28;20162;-69
2020/12/10 07:08:30;;;;;;;573.53;46.20;;;1.40;99.90;;;;;;5063755;28;20064;-69
2020/12/10 07:10:55;;;;;;;834.58;58.95;;;1.40;99.90;;;;;;5063038;28;20060;-69
2020/12/10 07:13:31;;;;;;;681.38;58.47;;;1.40;99.90;;;;;;5062078;28;20417;-69
2020/12/10 07:15:57;;;;;;;531.40;50.38;;;1.40;99.90;;;;;;5061094;28;20045;-69
2020/12/10 07:18:23;;;;;;;593.55;48.33;;;1.40;99.90;;;;;;5051493;28;20164;-69
2020/12/10 07:20:48;;;;;;;555.55;50.28;;;1.40;99.90;;;;;;5060860;28;20110;-69
2020/12/10 07:23:14;;;;;;;350.52;33.97;;;1.40;99.90;;;;;;5061992;28;20500;-69
2020/12/10 07:25:40;;;;;;;808.45;64.38;;;1.40;99.90;;;;;;5056260;28;20057;-69
2020/12/10 07:28:25;;;;;;;894.78;65.82;;;1.30;99.90;;;;;;5059708;28;20040;-69
2020/12/10 07:30:51;;;;;;;814.10;59.30;;;1.30;99.90;;;;;;5063862;28;20049;-68
2020/12/10 07:33:36;;;;;;;1025.93;64.60;;;1.20;99.90;;;;;;5060028;28;20049;-70
2020/12/10 07:36:23;;;;;;;1450.68;99.30;;;1.30;99.90;;;;;;5059343;28;20569;-69
2020/12/10 07:39:09;;;;;;;1207.40;80.97;;;1.40;99.90;;;;;;5062949;28;20085;-69
2020/12/10 07:41:55;;;;;;;867.65;67.38;;;1.30;99.90;;;;;;5063043;28;20052;-68
2020/12/10 07:44:28;;;;;;;855.10;72.75;;;1.50;99.90;;;;;;5061424;28;20404;-70
2020/12/10 07:46:54;;;;;;;1210.13;80.55;;;1.50;99.90;;;;;;5062790;28;20060;-70
2020/12/10 07:49:31;;;;;;;779.35;54.17;;;1.40;99.90;;;;;;5062145;28;20040;-70
2020/12/10 07:52:16;;;;;;;1245.35;78.25;;;1.30;99.90;;;;;;5029975;28;20049;-70
2020/12/10 07:54:46;;;;;;;834.55;65.95;;;1.30;99.90;;;;;;5061778;28;20064;-70
2020/12/10 07:57:36;;;;;;;874.17;69.40;;;1.40;99.90;;;;;;5057172;28;20040;-70
2020/12/10 08:00:07;;;;;;;960.90;66.60;;;1.40;99.90;;;;;;5064382;28;20036;-70
2020/12/10 08:03:10;;;;;;;403.75;43.30;;;1.30;99.90;;;;;;5061032;28;20048;-70
2020/12/10 08:05:37;;;;;;;;;;;1.50;99.90;;;;;;5054716;28;20053;-70
2020/12/10 08:08:42;;;;;;;598.08;53.83;;;1.50;99.90;;;;;;5048209;28;19932;-70
2020/12/10 08:11:19;;;;;;;863.85;69.65;;;1.50;99.90;;;;;;5063541;28;20516;-70
2020/12/10 08:14:08;;;;;;;1162.15;93.50;;;1.50;99.90;;;;;;5061118;28;20037;-70
2020/12/10 08:16:55;;;;;;;331.67;40.97;;;1.50;99.90;;;;;;5061226;28;20132;-69
2020/12/10 08:19:26;;;;;;;382.35;43.22;;;1.60;99.90;;;;;;5049029;28;20045;-69
2020/12/10 08:21:53;;;;;;;344.83;43.78;;;1.50;99.90;;;;;;5059560;28;20044;-69
2020/12/10 08:24:35;;;;;;;652.63;61.88;;;1.60;99.90;;;;;;5028833;28;20049;-69
2020/12/10 08:27:02;;;;;;;351.77;55.08;;;1.60;99.90;;;;;;5052924;28;20134;-69
2020/12/10 08:29:27;;;;;;;295.55;55.05;;;1.60;99.90;;;;;;5039761;28;20393;-69
2020/12/10 08:32:14;;;;;;;322.50;47.00;;;1.70;99.90;;;;;;5039649;28;20650;-69
2020/12/10 08:34:40;;;;;;;235.07;48.03;;;1.70;99.90;;;;;;5036936;28;20045;-70
2020/12/10 08:37:10;;;;;;;229.98;50.80;;;1.70;99.90;;;;;;5039930;28;20086;-70
2020/12/10 08:39:39;;;;;;;178.88;47.42;;;1.70;99.90;;;;;;5039685;28;20497;-70
2020/12/10 08:42:05;;;;;;;173.43;51.83;;;1.70;99.90;;;;;;5036981;28;20048;-69
2020/12/10 08:44:49;;;;;;;158.35;42.70;;;1.80;99.90;;;;;;5035500;28;20041;-69
2020/12/10 08:47:34;;;;;;;168.57;49.50;;;1.90;99.90;;;;;;5039633;28;20049;-69
2020/12/10 08:50:24;;;;;;;157.02;48.65;;;1.90;99.90;;;;;;5015569;28;20576;-69
2020/12/10 08:53:01;;;;;;;135.68;42.97;;;2.00;99.90;;;;;;5040120;28;20190;-69
2020/12/10 08:55:50;;;;;;;129.95;43.88;;;2.00;99.90;;;;;;5027750;28;20468;-69
2020/12/10 08:58:39;;;;;;;113.30;38.65;;;1.90;99.90;;;;;;5036152;28;20075;-69
2020/12/10 09:01:24;;;;;;;121.35;46.70;;;1.90;99.90;;;;;;5026792;28;20045;-70
2020/12/10 09:03:50;;;;;;;105.88;40.85;;;1.90;99.90;;;;;;5038596;28;20049;-69
2020/12/10 09:06:16;;;;;;;92.47;36.92;;;2.00;99.90;;;;;;5033443;28;20465;-70
2020/12/10 09:08:42;;;;;;;92.55;34.47;;;2.00;99.80;;;;;;5040905;28;20128;-70
2020/12/10 09:11:08;;;;;;;114.20;44.75;;;1.90;99.70;;;;;;5042482;28;20056;-69
2020/12/10 09:13:54;;;;;;;122.82;44.08;;;2.00;99.80;;;;;;5038854;28;20049;-70
2020/12/10 09:16:19;;;;;;;122.80;49.75;;;2.00;99.70;;;;;;5027370;28;20386;-69
2020/12/10 09:18:45;;;;;;;102.10;43.88;;;2.00;99.60;;;;;;5034479;28;20078;-69
2020/12/10 09:21:12;;;;;;;124.65;48.67;;;2.00;99.00;;;;;;5041030;28;20405;-69
2020/12/10 09:23:57;;;;;;;121.32;51.92;;;2.00;99.10;;;;;;5040137;28;20140;-69
2020/12/10 09:26:23;;;;;;;96.85;38.50;;;2.00;99.10;;;;;;5035898;28;20395;-68
2020/12/10 09:28:49;;;;;;;134.73;54.90;;;2.10;99.10;;;;;;5039405;28;20041;-69
2020/12/10 09:31:14;;;;;;;138.20;57.08;;;2.10;99.10;;;;;;5042111;28;20091;-68
2020/12/10 09:33:40;;;;;;;144.60;61.05;;;2.10;99.20;;;;;;5039956;28;20049;-69
2020/12/10 09:36:25;;;;;;;135.43;53.03;;;2.10;99.00;;;;;;5054195;28;20060;-69
2020/12/10 09:38:51;;;;;;;115.00;43.00;;;2.00;99.10;;;;;;5042621;28;20053;-69
2020/12/10 09:41:19;;;;;;;140.02;50.45;;;1.80;99.10;;;;;;5042293;28;20041;-68
2020/12/10 09:43:45;;;;;;;137.10;57.45;;;1.90;99.00;;;;;;5037440;28;20049;-69
2020/12/10 09:46:13;;;;;;;91.28;40.42;;;2.00;99.00;;;;;;5041341;28;20041;-70
2020/12/10 09:48:39;;;;;;;117.25;47.08;;;2.00;98.50;;;;;;5035991;28;20056;-71
2020/12/10 09:51:26;;;;;;;113.03;46.58;;;2.10;98.40;;;;;;5050469;28;20132;-70
2020/12/10 09:54:02;;;;;;;129.00;52.05;;;2.10;98.50;;;;;;5042423;28;20489;-70
2020/12/10 09:57:29;;;;;;;126.63;49.90;;;2.10;98.50;;;;;;5041585;28;20120;-70
2020/12/10 09:59:24;;;;;;;140.70;58.55;;;2.20;98.60;;;;;;5040602;28;20109;-69
2020/12/10 10:01:50;;;;;;;127.07;49.47;;;2.20;98.50;;;;;;5037042;28;20460;-69
2020/12/10 10:04:35;;;;;;;123.75;47.83;;;2.10;98.40;;;;;;5043692;28;20110;-70
2020/12/10 10:07:06;;;;;;;133.68;52.35;;;2.10;98.40;;;;;;5042997;28;20049;-70
2020/12/10 10:09:32;;;;;;;136.45;52.42;;;2.00;98.40;;;;;;5043108;28;20041;-70
2020/12/10 10:11:57;;;;;;;136.25;55.03;;;2.00;98.30;;;;;;5046815;28;20159;-70
2020/12/10 10:14:23;;;;;;;126.45;52.53;;;1.80;98.70;;;;;;5045266;28;20486;-69
2020/12/10 10:17:09;;;;;;;139.65;54.47;;;1.90;98.70;;;;;;5040525;28;20069;-69
2020/12/10 10:19:36;;;;;;;121.57;46.20;;;2.00;98.60;;;;;;5043200;28;20411;-70
2020/12/10 10:22:03;;;;;;;143.25;55.90;;;2.10;98.40;;;;;;5043429;28;20047;-69
2020/12/10 10:24:30;;;;;;;156.82;57.58;;;2.10;98.40;;;;;;5030043;28;20387;-69
2020/12/10 10:26:56;;;;;;;145.68;54.63;;;2.10;98.70;;;;;;5043662;28;20057;-69
2020/12/10 10:29:41;;;;;;;146.80;53.65;;;2.10;98.80;;;;;;5044518;28;20041;-69
2020/12/10 10:32:07;;;;;;;147.23;53.05;;;2.10;98.70;;;;;;5045339;28;20047;-70
2020/12/10 10:34:53;;;;;;;146.50;54.25;;;2.10;98.50;;;;;;5043667;28;20059;-70
2020/12/10 10:37:18;;;;;;;142.90;58.00;;;2.20;98.50;;;;;;5041657;28;20029;-70
2020/12/10 10:39:44;;;;;;;120.22;49.60;;;2.20;98.40;;;;;;5044521;28;20527;-70
2020/12/10 10:42:09;;;;;;;146.07;51.88;;;2.10;98.00;;;;;;5039259;28;20094;-70
2020/12/10 10:44:35;;;;;;;186.00;58.70;;;1.90;98.20;;;;;;5044922;28;20466;-69
2020/12/10 10:47:20;;;;;;;119.32;42.60;;;1.80;98.50;;;;;;5043948;28;20222;-69
2020/12/10 10:49:46;;;;;;;197.90;59.55;;;1.80;98.90;;;;;;5044750;28;20512;-69
2020/12/10 10:52:32;;;;;;;150.57;58.38;;;1.80;98.70;;;;;;5042194;28;20080;-70
2020/12/10 10:54:58;;;;;;;163.38;62.92;;;1.80;98.80;;;;;;5045048;28;20076;-71
2020/12/10 10:57:23;;;;;;;145.93;53.17;;;2.00;98.50;;;;;;5038030;28;20037;-68
2020/12/10 10:59:49;;;;;;;141.13;44.40;;;2.10;98.40;;;;;;5032446;28;20566;-70
2020/12/10 11:02:35;;;;;;;163.40;55.63;;;2.00;98.00;;;;;;5040565;28;20513;-70
2020/12/10 11:05:00;;;;;;;151.70;52.42;;;1.80;98.80;;;;;;5036453;28;20045;-68
2020/12/10 11:07:27;;;;;;;164.13;58.45;;;2.00;98.70;;;;;;5033655;28;20045;-69
2020/12/10 11:09:52;;;;;;;182.00;66.45;;;2.00;98.70;;;;;;5045176;28;20055;-69
2020/12/10 11:12:18;;;;;;;169.75;51.30;;;2.10;98.60;;;;;;5036643;28;20519;-70
2020/12/10 11:15:04;;;;;;;241.60;60.97;;;2.00;98.60;;;;;;5038075;28;20103;-70
2020/12/10 11:17:29;;;;;;;178.77;57.20;;;2.00;98.50;;;;;;5033482;28;20065;-70
2020/12/10 11:20:15;;;;;;;208.40;70.55;;;1.80;98.90;;;;;;5040402;28;20142;-70
2020/12/10 11:23:01;;;;;;;149.75;46.03;;;1.90;98.90;;;;;;5027581;28;20047;-70
2020/12/10 11:25:26;;;;;;;186.10;58.92;;;1.90;98.50;;;;;;5043288;28;20053;-70
2020/12/10 11:27:52;;;;;;;177.95;53.10;;;1.70;98.60;;;;;;5044649;28;20127;-70
2020/12/10 11:30:18;;;;;;;199.90;59.95;;;1.70;98.70;;;;;;5044140;28;20126;-70
2020/12/10 11:32:43;;;;;;;159.45;52.45;;;1.80;98.70;;;;;;5042308;28;20202;-70
2020/12/10 11:35:29;;;;;;;149.20;54.10;;;1.90;98.80;;;;;;5035873;28;20061;-70
2020/12/10 11:38:15;;;;;;;157.45;56.80;;;2.00;98.70;;;;;;5043488;28;20048;-69
2020/12/10 11:40:40;;;;;;;193.07;61.40;;;2.00;98.60;;;;;;5035740;28;20422;-69
2020/12/10 11:43:06;;;;;;;207.55;52.85;;;1.80;98.70;;;;;;5044242;28;20048;-70
2020/12/10 11:45:32;;;;;;;174.00;61.53;;;1.90;98.80;;;;;;5040107;28;20059;-71
2020/12/10 11:48:19;;;;;;;233.05;63.40;;;1.90;98.90;;;;;;5036544;28;20084;-70
2020/12/10 11:51:05;;;;;;;208.27;60.53;;;1.80;98.60;;;;;;5041673;28;20052;-69
2020/12/10 11:53:34;;;;;;;202.30;56.47;;;1.80;98.80;;;;;;5043147;28;20045;-70
2020/12/10 11:56:01;;;;;;;183.27;60.25;;;1.90;98.60;;;;;;5039539;28;20127;-70
2020/12/10 11:58:28;;;;;;;171.25;59.35;;;1.90;98.80;;;;;;5040963;28;20032;-69
2020/12/10 12:00:53;;;;;;;168.63;58.72;;;1.90;98.80;;;;;;5048463;28;20048;-70
2020/12/10 12:03:39;;;;;;;250.35;60.25;;;1.90;98.60;;;;;;5040599;28;20071;-69
2020/12/10 12:06:25;;;;;;;250.70;48.05;;;1.80;98.50;;;;;;5033763;28;20048;-69
2020/12/10 12:08:52;;;;;;;145.18;51.05;;;1.70;98.50;;;;;;5043375;28;20052;-69
2020/12/10 12:11:25;;;;;;;139.35;47.92;;;1.70;98.40;;;;;;5041064;28;20762;-69
2020/12/10 12:14:11;;;;;;;;;;;1.70;98.60;;;;;;5041385;28;20064;-70
2020/12/10 12:16:37;;;;;;;155.38;54.95;;;1.70;98.60;;;;;;5043158;28;19925;-69
2020/12/10 12:19:23;;;;;;;184.07;53.38;;;1.70;98.70;;;;;;5040459;28;20516;-69
2020/12/10 12:21:48;;;;;;;139.20;49.28;;;1.80;98.70;;;;;;5041891;28;20132;-70
2020/12/10 12:24:14;;;;;;;236.50;53.30;;;1.70;98.60;;;;;;5030701;28;20041;-68
2020/12/10 12:27:03;;;;;;;179.02;51.45;;;1.70;98.70;;;;;;5022422;28;20053;-68
2020/12/10 12:29:29;;;;;;;160.10;53.90;;;1.70;98.90;;;;;;5036499;28;20041;-69
2020/12/10 12:32:15;;;;;;;148.15;53.85;;;1.80;99.00;;;;;;5008300;28;20072;-70
2020/12/10 12:34:40;;;;;;;138.15;53.25;;;1.80;98.80;;;;;;5036699;28;20137;-70
2020/12/10 12:37:27;;;;;;;153.63;50.65;;;1.90;98.70;;;;;;5042036;28;20513;-70
2020/12/10 12:39:53;;;;;;;158.57;57.65;;;1.90;98.70;;;;;;5035888;28;20052;-68
2020/12/10 12:42:23;;;;;;;106.72;30.25;;;1.90;98.50;;;;;;5043866;28;20052;-69
2020/12/10 12:44:49;;;;;;;134.38;38.40;;;1.70;98.60;;;;;;5042946;28;20394;-69
2020/12/10 12:47:34;;;;;;;189.88;47.90;;;1.80;98.60;;;;;;5041283;28;20049;-69
2020/12/10 12:50:01;;;;;;;168.82;48.33;;;1.80;98.70;;;;;;5041057;28;20143;-70
2020/12/10 12:52:46;;;;;;;213.48;47.25;;;1.80;98.90;;;;;;5041578;28;20144;-69
2020/12/10 12:55:32;;;;;;;196.95;49.22;;;1.70;98.90;;;;;;5052766;28;20081;-69
2020/12/10 12:57:57;;;;;;;166.32;46.83;;;1.80;98.70;;;;;;5038975;28;20493;-71